Flight Track Log - Related Links

Times and Time Zones

All times are in EST time to prevent confusion due to time zone crossing. See the N23NW flight status page for this flight to view local times or setup timezone preferences in your user account.

Time Position Orientation Groundspeed Altitude Reporting Facility
EST Latitude Longitude Course Direction KTS MPH feet Rate Location/Type
Fri 11:14:40 AM 39.0833 -108.4667 346° North 163 188 8,100  Level Denver TRACON
Fri 11:15:13 AM 39.0964 -108.4336 63° Northeast 157 181 9,200 2,337 Climbing Salt Lake Center
Fri 11:16:15 AM 39.1472 -108.4392 355° North 164 189 11,800 2,098 Climbing Salt Lake Center
Fri 11:17:16 AM 39.1886 -108.4519 347° North 161 185 13,500 1,805 Climbing Salt Lake Center
Fri 11:18:18 AM 39.2300 -108.4681 343° North 161 185 15,500 2,032 Climbing Salt Lake Center
Fri 11:19:20 AM 39.2739 -108.4842 344° North 154 177 17,700 1,645 Climbing Salt Lake Center
Fri 11:20:00 AM 39.4641 -108.6436 346° North  Level FlightAware Approximate
Fri 11:20:22 AM 39.3103 -108.4964 345° North 147 169 18,900  Level Salt Lake Center
Fri 11:21:24 AM 39.3522 -108.5108 345° North 142 163 20,800 1,659 Climbing Salt Lake Center
Fri 11:22:25 AM 39.3886 -108.5236 345° North 140 161 22,300 1,415 Climbing Salt Lake Center
Fri 11:23:27 AM 39.4308 -108.5381 345° North 140 161 23,700 823 Climbing Salt Lake Center
Fri 11:24:29 AM 39.4731 -108.5525 345° North 159 183 24,000 145 Climbing Salt Lake Center
Fri 11:25:31 AM 39.5339 -108.5736 345° North 197 227 24,000  Level Salt Lake Center
Fri 11:26:33 AM 39.5886 -108.5925 345° North 210 242 24,000  Level Salt Lake Center
Fri 11:27:35 AM 39.6531 -108.6147 345° North 216 249 24,000  Level Salt Lake Center
Fri 11:28:36 AM 39.7086 -108.6350 344° North 219 252 24,000  Level Salt Lake Center
Fri 11:29:38 AM 39.7731 -108.6583 344° North 218 251 24,000 -48 Level Salt Lake Center
Fri 11:30:40 AM 39.8292 -108.6783 345° North 219 252 23,900  Descending Salt Lake Center
Fri 11:31:42 AM 39.8939 -108.7017 345° North 217 250 24,000 48 Climbing Salt Lake Center
Fri 11:32:44 AM 39.9497 -108.7214 345° North 217 250 24,000  Level Salt Lake Center
Fri 11:33:46 AM 40.0150 -108.7444 345° North 217 250 24,000  Level Salt Lake Center
Fri 11:34:48 AM 40.0711 -108.7653 344° North 219 252 24,000  Level Salt Lake Center
Fri 11:35:49 AM 40.1367 -108.7889 345° North 219 252 24,000  Level Salt Lake Center
Fri 11:36:51 AM 40.1919 -108.8092 344° North 218 251 24,000  Level Salt Lake Center
Fri 11:37:53 AM 40.2475 -108.8292 345° North 217 250 24,000  Level Salt Lake Center
Fri 11:38:55 AM 40.3131 -108.8522 345° North 219 252 24,000  Level Salt Lake Center
Fri 11:39:57 AM 40.3700 -108.8731 344° North 221 254 24,000  Level Salt Lake Center
Fri 11:40:59 AM 40.4367 -108.8967 345° North 222 255 24,000  Level Salt Lake Center
Fri 11:42:01 AM 40.4933 -108.9175 344° North 222 255 24,000  Level Salt Lake Center
Fri 11:43:02 AM 40.5597 -108.9442 343° North 223 257 24,000  Level Salt Lake Center
Fri 11:44:04 AM 40.6178 -108.9642 345° North 221 254 24,000  Level Salt Lake Center
Fri 11:45:06 AM 40.6744 -108.9853 344° North 221 254 24,000  Level Salt Lake Center
Fri 11:46:08 AM 40.7417 -109.0086 345° North 224 258 24,000  Level Salt Lake Center
Fri 11:47:10 AM 40.7992 -109.0300 344° North 224 258 24,000  Level Salt Lake Center
Fri 11:48:12 AM 40.8661 -109.0556 344° North 224 258 24,000  Level Salt Lake Center
Fri 11:49:14 AM 40.9231 -109.0756 345° North 222 255 24,000 -48 Level Salt Lake Center
Fri 11:50:16 AM 40.9889 -109.0997 345° North 219 252 23,900  Descending Salt Lake Center
Fri 11:51:18 AM 41.0439 -109.1203 344° North 217 250 24,000 49 Climbing Salt Lake Center
Fri 11:52:19 AM 41.1078 -109.1444 344° North 214 246 24,000  Level Salt Lake Center
Fri 11:53:21 AM 41.1636 -109.1636 346° North 216 249 24,000  Level Salt Lake Center
Fri 11:54:23 AM 41.2269 -109.1881 344° North 213 245 24,000  Level Salt Lake Center
Fri 11:55:25 AM 41.2825 -109.2089 344° North 215 247 24,000  Level Salt Lake Center
Fri 11:56:27 AM 41.3383 -109.2294 345° North 215 247 24,000  Level Salt Lake Center
Fri 11:57:29 AM 41.4044 -109.2544 344° North 219 252 24,000  Level Salt Lake Center
Fri 11:58:31 AM 41.4619 -109.2761 344° North 221 254 24,000  Level Salt Lake Center
Fri 11:59:33 AM 41.5286 -109.3017 344° North 220 253 24,000  Level Salt Lake Center
Fri 12:00:35 PM 41.5853 -109.3217 345° North 220 253 24,000  Level Salt Lake Center
Fri 12:01:36 PM 41.6422 -109.3431 344° North 222 255 24,000  Level Salt Lake Center
Fri 12:02:38 PM 41.7086 -109.3686 344° North 221 254 24,000  Level Salt Lake Center
Fri 12:03:40 PM 41.7653 -109.3906 344° North 221 254 24,000  Level Salt Lake Center
Fri 12:04:42 PM 41.8314 -109.4158 344° North 221 254 24,000  Level Salt Lake Center
Fri 12:05:44 PM 41.8878 -109.4369 344° North 220 253 24,000  Level Salt Lake Center
Fri 12:06:46 PM 41.9539 -109.4617 344° North 221 254 24,000  Level Salt Lake Center
Fri 12:07:48 PM 42.0106 -109.4839 344° North 221 254 24,000  Level Salt Lake Center
Fri 12:08:50 PM 42.0775 -109.5097 344° North 223 257 24,000  Level Salt Lake Center
Fri 12:09:52 PM 42.1353 -109.5311 345° North 225 259 24,000  Level Salt Lake Center
Fri 12:10:54 PM 42.1931 -109.5531 344° North 224 258 24,000 532 Level Salt Lake Center
Fri 12:11:56 PM 42.2567 -109.5778 344° North 217 250 25,100 1,161 Climbing Salt Lake Center
Fri 12:12:58 PM 42.2997 -109.5944 344° North 177 204 26,400 1,122 Climbing Salt Lake Center
Fri 12:13:59 PM 42.3483 -109.6136 344° North 166 191 27,400 1,024 Climbing Salt Lake Center
Fri 12:15:01 PM 42.3886 -109.6292 344° North 159 183 28,500 774 Climbing Salt Lake Center
Fri 12:16:03 PM 42.4342 -109.6469 344° North 155 178 29,000 242 Climbing Salt Lake Center
Fri 12:17:05 PM 42.4792 -109.6658 343° North 170 196 29,000  Level Salt Lake Center
Fri 12:18:07 PM 42.5386 -109.6875 345° North 193 222 29,000  Level Salt Lake Center
Fri 12:19:09 PM 42.5892 -109.7086 343° North 199 229 29,000  Level Salt Lake Center
Fri 12:20:11 PM 42.6497 -109.7300 345° North 201 231 29,000 -48 Level Salt Lake Center
Fri 12:21:13 PM 42.7011 -109.7508 343° North 202 232 28,900  Descending Salt Lake Center
Fri 12:22:15 PM 42.7619 -109.7750 344° North 203 234 29,000 48 Climbing Salt Lake Center
Fri 12:23:17 PM 42.8144 -109.7947 345° North 204 235 29,000  Level Salt Lake Center
Fri 12:24:19 PM 42.8656 -109.8167 343° North 202 232 29,000  Level Salt Lake Center
Fri 12:25:21 PM 42.9267 -109.8381 346° North 203 234 29,000  Level Salt Lake Center
Fri 12:26:23 PM 42.9789 -109.8592 344° North 204 235 29,000  Level Salt Lake Center
Fri 12:27:25 PM 43.0403 -109.8833 344° North 204 235 29,000  Level Salt Lake Center
Fri 12:28:27 PM 43.0914 -109.9044 343° North 201 231 29,000  Level Salt Lake Center
Fri 12:29:29 PM 43.1525 -109.9267 345° North 203 234 29,000 -48 Level Salt Lake Center
Fri 12:30:31 PM 43.2031 -109.9481 343° North 200 230 28,900  Descending Salt Lake Center
Fri 12:31:33 PM 43.2631 -109.9686 346° North 202 232 29,000 49 Climbing Salt Lake Center
Fri 12:32:34 PM 43.3150 -109.9886 344° North 202 232 29,000  Level Salt Lake Center
Fri 12:33:36 PM 43.3758 -110.0128 344° North 203 234 29,000  Level Salt Lake Center
Fri 12:34:38 PM 43.4272 -110.0339 343° North 202 232 29,000 -242 Level Salt Lake Center
Fri 12:35:40 PM 43.4892 -110.0569 345° North 206 237 28,500 -484 Descending Salt Lake Center
Fri 12:36:42 PM 43.5447 -110.0811 343° North 213 245 28,000 -484 Descending Salt Lake Center
Fri 12:37:44 PM 43.6019 -110.1036 344° North 220 253 27,500 -484 Descending Salt Lake Center
Fri 12:38:46 PM 43.6692 -110.1317 343° North 225 259 27,000 -484 Descending Salt Lake Center
Fri 12:39:48 PM 43.7275 -110.1553 344° North 228 262 26,500 -488 Descending Salt Lake Center
Fri 12:40:49 PM 43.7969 -110.1819 345° North 231 266 26,000 -488 Descending Salt Lake Center
Fri 12:41:51 PM 43.8567 -110.2069 343° North 235 270 25,500 -532 Descending Salt Lake Center
Fri 12:42:53 PM 43.9261 -110.2353 344° North 234 269 24,900 -532 Descending Salt Lake Center
Fri 12:43:55 PM 43.9864 -110.2606 343° North 236 272 24,400 -435 Descending Salt Lake Center
Fri 12:44:57 PM 44.0564 -110.2872 345° North 235 270 24,000 -195 Descending Salt Lake Center
Fri 12:45:58 PM 44.1153 -110.3125 343° North 232 267 24,000  Level Salt Lake Center
Fri 12:47:00 PM 44.1747 -110.3369 344° North 231 266 24,000  Level Salt Lake Center
Fri 12:48:02 PM 44.2431 -110.3644 344° North 230 265 24,000  Level Salt Lake Center
Fri 12:49:04 PM 44.3011 -110.3889 343° North 228 262 24,000  Level Salt Lake Center
Fri 12:50:05 PM 44.3700 -110.4158 344° North 230 265 24,000  Level Salt Lake Center
Fri 12:51:07 PM 44.4275 -110.4403 343° North 227 261 24,000  Level Salt Lake Center
Fri 12:52:09 PM 44.4950 -110.4678 344° North 227 261 24,000  Level Salt Lake Center
Fri 12:53:11 PM 44.5528 -110.4922 343° North 226 260 24,000  Level Salt Lake Center
Fri 12:54:12 PM 44.6194 -110.5208 343° North 225 259 24,000  Level Salt Lake Center
Fri 12:55:14 PM 44.6772 -110.5450 343° North 226 260 24,000  Level Salt Lake Center
Fri 12:56:16 PM 44.7453 -110.5736 343° North 228 262 24,000  Level Salt Lake Center
Fri 12:57:18 PM 44.8036 -110.5969 344° North 229 264 24,000  Level Salt Lake Center
Fri 12:58:19 PM 44.8631 -110.6222 343° North 233 268 24,000  Level Salt Lake Center
Fri 12:59:21 PM 44.9331 -110.6511 344° North 234 269 24,000  Level Salt Lake Center
Fri 01:00:23 PM 44.9928 -110.6761 344° North 234 269 24,000  Level Salt Lake Center
Fri 01:01:24 PM 45.0622 -110.7050 344° North 233 268 24,000  Level Salt Lake Center
Fri 01:02:26 PM 45.1278 -110.7333 343° North 234 269 24,000  Level Salt Lake Center
Fri 01:03:28 PM 45.1917 -110.7600 344° North 237 273 24,000  Level Salt Lake Center
Fri 01:04:29 PM 45.2550 -110.7875 343° North 233 268 24,000  Level Salt Lake Center
Fri 01:05:31 PM 45.3183 -110.8139 344° North 233 268 24,000  Level Salt Lake Center
Fri 01:06:33 PM 45.3817 -110.8406 344° North 232 267 24,000  Level Salt Lake Center
Fri 01:07:34 PM 45.4442 -110.8678 343° North 232 267 24,000  Level Salt Lake Center
Fri 01:08:36 PM 45.5067 -110.8936 344° North 229 264 24,000  Level Salt Lake Center
Fri 01:09:38 PM 45.5725 -110.9222 343° North 228 262 24,000  Level Salt Lake Center
Fri 01:10:40 PM 45.6339 -110.9489 343° North 226 260 24,000  Level Salt Lake Center
Fri 01:11:41 PM 45.6969 -110.9767 343° North 231 266 24,000  Level Salt Lake Center
Fri 01:12:43 PM 45.7603 -111.0042 343° North 234 269 24,000  Level Salt Lake Center
Fri 01:13:45 PM 45.8236 -111.0317 343° North 236 272 24,000  Level Salt Lake Center
Fri 01:14:46 PM 45.8861 -111.0594 343° North 233 268 24,000  Level Salt Lake Center
Fri 01:15:48 PM 45.9533 -111.0886 343° North 230 265 24,000  Level Salt Lake Center
Fri 01:16:50 PM 46.0156 -111.1158 343° North 231 266 24,000  Level Salt Lake Center
Fri 01:17:51 PM 46.0781 -111.1439 343° North 231 266 24,000  Level Salt Lake Center
Fri 01:18:53 PM 46.1422 -111.1719 343° North 235 270 24,000  Level Salt Lake Center
Fri 01:19:55 PM 46.2050 -111.1989 343° North 232 267 24,000  Level Salt Lake Center
Fri 01:20:56 PM 46.2647 -111.2261 343° North 223 257 24,000  Level Salt Lake Center
Fri 01:21:58 PM 46.3247 -111.2528 343° North 222 255 24,000  Level Salt Lake Center
Fri 01:22:59 PM 46.3842 -111.2794 343° North 220 253 24,000  Level Salt Lake Center
Fri 01:24:01 PM 46.4411 -111.3056 342° North 217 250 24,000 -48 Level Salt Lake Center
Fri 01:25:03 PM 46.4978 -111.3306 343° North 212 244 23,900  Descending Salt Lake Center
Fri 01:26:04 PM 46.5547 -111.3569 342° North 214 246 24,000 49 Climbing Salt Lake Center
Fri 01:27:06 PM 46.6114 -111.3797 345° North 212 244 24,000  Level Salt Lake Center
Fri 01:28:08 PM 46.6708 -111.4078 342° North 220 253 24,000  Level Salt Lake Center
Fri 01:29:09 PM 46.7408 -111.4392 343° North 225 259 24,000  Level Salt Lake Center
Fri 01:30:11 PM 46.8006 -111.4656 343° North 224 258 24,000  Level Salt Lake Center
Fri 01:31:13 PM 46.8606 -111.4917 343° North 224 258 24,000  Level Salt Lake Center
Fri 01:32:14 PM 46.9219 -111.5208 342° North 232 267 24,000  Level Salt Lake Center
Fri 01:33:16 PM 46.9831 -111.5464 344° North 230 265 24,000  Level Salt Lake Center
Fri 01:34:18 PM 47.0433 -111.5742 343° North 227 261 24,000  Level Salt Lake Center
Fri 01:35:19 PM 47.1064 -111.6050 342° North 233 268 24,000  Level Salt Lake Center
Fri 01:36:21 PM 47.1681 -111.6322 343° North 237 273 24,000  Level Salt Lake Center
Fri 01:37:23 PM 47.2436 -111.6661 343° North 237 273 24,000  Level Salt Lake Center
Fri 01:38:25 PM 47.3064 -111.6953 343° North 237 273 24,000 -48 Level Salt Lake Center
Fri 01:39:27 PM 47.3686 -111.7244 342° North 235 270 23,900  Descending Salt Lake Center
Fri 01:40:29 PM 47.4339 -111.7533 343° North 240 276 24,000 48 Climbing Salt Lake Center
Fri 01:41:31 PM 47.4983 -111.7842 342° North 242 278 24,000 -242 Level Salt Lake Center
Fri 01:42:33 PM 47.5642 -111.8147 343° North 246 283 23,500 -677 Descending Salt Lake Center
Fri 01:43:35 PM 47.6317 -111.8467 342° North 250 288 22,600 -732 Descending Salt Lake Center
Fri 01:44:36 PM 47.7164 -111.8858 343° North 261 300 22,000 -293 Descending Salt Lake Center
Fri 01:45:38 PM 47.7861 -111.9186 342° North 262 302 22,000  Level Salt Lake Center
Fri 01:46:40 PM 47.8556 -111.9514 342° North 262 302 22,000  Level Salt Lake Center
Fri 01:47:42 PM 47.9247 -111.9836 343° North 261 300 22,000  Level Salt Lake Center
Fri 01:48:45 PM 47.9925 -112.0161 342° North 258 297 22,000  Level Salt Lake Center
Fri 01:49:47 PM 48.0611 -112.0486 342° North 258 297 22,000  Level Salt Lake Center
Fri 01:50:49 PM 48.1303 -112.0806 343° North 259 298 22,000  Level Salt Lake Center
Fri 01:51:51 PM 48.2128 -112.1203 342° North 260 299 22,000  Level Salt Lake Center
Fri 01:52:53 PM 48.2833 -112.1547 342° North 264 304 22,000  Level Salt Lake Center
Fri 01:53:55 PM 48.3539 -112.1894 342° North 266 306 22,000  Level Salt Lake Center
Fri 01:54:57 PM 48.4256 -112.2222 343° North 268 308 22,000  Level Salt Lake Center
Fri 01:55:59 PM 48.4964 -112.2575 342° North 268 308 22,000  Level Salt Lake Center
Fri 01:57:01 PM 48.5700 -112.2922 343° North 273 314 22,000  Level Salt Lake Center
Fri 01:58:03 PM 48.6553 -112.3333 342° North 271 312 22,000  Level Salt Lake Center
Fri 01:59:05 PM 48.7283 -112.3694 342° North 273 314 22,000  Level Salt Lake Center
Fri 02:00:07 PM 48.8011 -112.4053 342° North 276 318 22,000  Level Salt Lake Center
Fri 02:01:09 PM 48.8736 -112.4419 342° North 275 316 22,000  Level Salt Lake Center
Fri 02:02:11 PM 48.9483 -112.4767 343° North 279 321 22,000  Level Salt Lake Center
Fri 02:03:13 PM 49.0214 -112.5131 342° North 279 321 22,000  Level Salt Lake Center
Fri 02:04:11 PM 49.0667 -112.5667 322° Northwest 270 311 22,000  Level Edmonton Center
Fri 02:05:11 PM 49.1500 -112.6167 339° North 280 322 22,000  Level Edmonton Center
Fri 02:06:11 PM 49.2167 -112.6500 342° North 260 299 22,000  Level Edmonton Center
Fri 02:07:11 PM 49.3000 -112.6833 345° North 280 322 22,000  Level Edmonton Center
Fri 02:08:11 PM 49.3667 -112.7333 334° Northwest 280 322 22,000  Level Edmonton Center
Fri 02:09:11 PM 49.4333 -112.7667 342° North 290 334 22,000  Level Edmonton Center
Fri 02:10:11 PM 49.5167 -112.8000 345° North 280 322 22,000  Level Edmonton Center
Fri 02:11:11 PM 49.6000 -112.8500 339° North 290 334 22,000  Level Edmonton Center
Fri 02:12:11 PM 49.6667 -112.8667 351° North 280 322 22,000  Level Edmonton Center
Fri 02:13:11 PM 49.7500 -112.9000 346° North 290 334 22,000  Level Edmonton Center
Fri 02:14:11 PM 49.8167 -112.9333 342° North 280 322 22,000 -250 Level Edmonton Center
Fri 02:15:11 PM 49.9000 -112.9833 339° North 290 334 21,500 -800 Descending Edmonton Center
Fri 02:16:11 PM 49.9833 -113.0167 346° North 290 334 20,400 -1,100 Descending Edmonton Center
Fri 02:17:11 PM 50.0500 -113.0500 342° North 280 322 19,300 -1,150 Descending Edmonton Center
Fri 02:18:11 PM 50.1333 -113.1000 339° North 270 311 18,100 -1,250 Descending Edmonton Center
Fri 02:19:11 PM 50.1833 -113.1333 337° Northwest 260 299 16,800 -1,200 Descending Edmonton Center
Fri 02:20:11 PM 50.2500 -113.1667 342° North 260 299 15,700 -1,100 Descending Edmonton Center
Fri 02:21:11 PM 50.3333 -113.2167 339° North 260 299 14,600 -850 Descending Edmonton Center
Fri 02:22:11 PM 50.4000 -113.2500 342° North 250 288 14,000 -250 Descending Edmonton Center
Fri 02:23:11 PM 50.4500 -113.2833 337° Northwest 230 265 14,100  Climbing Edmonton Center
Fri 02:24:11 PM 50.5167 -113.3000 351° North 220 253 14,000 -50 Descending Edmonton Center
Fri 02:25:11 PM 50.5833 -113.3500 335° Northwest 230 265 14,000 -400 Level Edmonton Center
Fri 02:26:11 PM 50.6500 -113.3833 342° North 250 288 13,200 -950 Descending Edmonton Center
Fri 02:27:11 PM 50.7000 -113.4500 320° Northwest 230 265 12,100 -1,050 Descending Edmonton Center
Fri 02:28:11 PM 50.7333 -113.5000 316° Northwest 230 265 11,100 -900 Descending Edmonton Center
Fri 02:29:11 PM 50.8000 -113.6000 317° Northwest 240 276 10,300 -650 Descending Edmonton Center
Fri 02:30:11 PM 50.8500 -113.6667 320° Northwest 230 265 9,800 -650 Descending Edmonton Center
Fri 02:31:11 PM 50.8833 -113.7167 317° Northwest 240 276 9,000 -750 Descending Edmonton Center
Fri 02:32:11 PM 50.9333 -113.7833 320° Northwest 230 265 8,300 -500 Descending Edmonton Center
Fri 02:33:11 PM 50.9833 -113.8833 308° West 250 288 8,000 -100 Descending Edmonton Center
Fri 02:34:11 PM 51.0667 -113.9000 353° North 260 299 8,100 -100 Climbing Edmonton Center
Fri 02:35:11 PM 51.1167 -113.9000 360° North 240 276 7,800 -600 Descending Edmonton Center
Fri 02:36:11 PM 51.2000 -113.9167 353° North 240 276 6,900 -950 Descending Edmonton Center
Fri 02:37:11 PM 51.2500 -113.9333 348° North 210 242 5,900 -700 Descending Edmonton Center
Fri 02:38:11 PM 51.2333 -114.0167 252° West 170 196 5,500 -200 Descending Edmonton Center
Fri 02:39:11 PM 51.2167 -114.0333 212° Southwest 160 184 5,500 -200 Level Edmonton Center
Fri 02:40:11 PM 51.1667 -114.0500 192° South 150 173 5,100 -550 Descending Edmonton Center
Fri 02:41:11 PM 51.1333 -114.0500 180° South 130 150 4,400 -650 Descending Edmonton Center
Fri 02:42:11 PM 51.1000 -114.0333 163° South 110 127 3,800 -600 Descending Edmonton Center

Login

Don't have an account? Register now (free) for customized features, flight alerts, and more!